createdAt,value
2018-11-26T18:46:34.882Z,20.60
2018-11-26T18:47:34.839Z,20.56
2018-11-26T18:48:35.028Z,20.58
2018-11-26T18:49:34.936Z,20.59
2018-11-26T18:50:34.643Z,20.63
2018-11-26T18:51:34.584Z,20.68
2018-11-26T18:52:34.539Z,20.59
2018-11-26T18:53:34.485Z,20.64
2018-11-26T18:54:34.450Z,20.64
2018-11-26T18:55:34.401Z,20.63
2018-11-26T18:56:34.336Z,20.68
2018-11-26T18:57:34.266Z,20.66
2018-11-26T18:58:34.231Z,20.68
2018-11-26T18:59:34.203Z,20.67
2018-11-26T19:00:34.101Z,20.68
2018-11-26T19:01:34.034Z,20.68
2018-11-26T19:02:34.011Z,20.74
2018-11-26T19:03:33.911Z,20.70
2018-11-26T19:04:33.867Z,20.75
2018-11-26T19:05:33.787Z,20.71
2018-11-26T19:06:33.727Z,20.70
2018-11-26T19:07:33.687Z,20.70
2018-11-26T19:08:33.621Z,20.67
2018-11-26T19:09:33.531Z,20.68
2018-11-26T19:10:33.443Z,20.70
2018-11-26T19:11:33.385Z,20.70
2018-11-26T19:12:33.308Z,20.68
2018-11-26T19:13:33.245Z,20.66
2018-11-26T19:14:33.274Z,20.60
2018-11-26T19:15:33.179Z,20.56
2018-11-26T19:16:33.035Z,20.73
2018-11-26T19:17:33.090Z,20.63
2018-11-26T19:18:32.906Z,20.74
2018-11-26T19:19:32.850Z,20.74
2018-11-26T19:20:32.796Z,20.68
2018-11-26T19:21:33.266Z,20.75
2018-11-26T19:22:32.652Z,20.64
2018-11-26T19:23:32.599Z,20.73
2018-11-26T19:24:32.602Z,20.66
2018-11-26T19:25:32.460Z,20.66
2018-11-26T19:26:32.387Z,20.64
2018-11-26T19:27:32.333Z,20.67
2018-11-26T19:28:32.247Z,20.67
2018-11-26T19:29:32.176Z,20.59
2018-11-26T19:30:32.106Z,20.70
2018-11-26T19:31:32.029Z,20.68
2018-11-26T19:32:32.012Z,20.66
2018-11-26T19:33:31.902Z,20.73
2018-11-26T19:34:31.866Z,20.73
2018-11-26T19:35:31.795Z,20.67
2018-11-26T19:36:31.701Z,20.71
2018-11-26T19:37:31.607Z,20.70
2018-11-26T19:38:31.527Z,20.67
2018-11-26T19:39:31.496Z,20.71
2018-11-26T19:40:31.374Z,20.70
2018-11-26T19:41:31.322Z,20.68
2018-11-26T19:42:31.250Z,20.73
2018-11-26T19:43:31.209Z,20.74
2018-11-26T19:44:31.094Z,20.71
2018-11-26T19:45:31.042Z,20.77
2018-11-26T19:46:31.086Z,20.77
2018-11-26T19:47:30.949Z,20.85
2018-11-26T19:48:30.833Z,20.80
2018-11-26T19:49:30.803Z,20.80
2018-11-26T19:50:30.651Z,20.90
2018-11-26T19:51:30.598Z,20.78
2018-11-26T19:52:30.513Z,20.85
2018-11-26T19:53:30.417Z,20.77
2018-11-26T19:54:30.368Z,20.75
2018-11-26T19:55:30.355Z,20.95
2018-11-26T19:56:30.285Z,20.77
2018-11-26T19:57:30.198Z,20.75
2018-11-26T19:58:30.057Z,20.82
2018-11-26T19:59:29.986Z,20.90
2018-11-26T20:00:29.908Z,20.89
2018-11-26T20:01:29.910Z,20.86
2018-11-26T20:02:29.823Z,20.89
2018-11-26T20:03:29.708Z,20.85
2018-11-26T20:04:29.622Z,20.83
2018-11-26T20:05:29.520Z,20.74
2018-11-26T20:06:29.555Z,20.80
2018-11-26T20:07:29.436Z,20.93
2018-11-26T20:08:29.331Z,20.83
2018-11-26T20:09:29.244Z,20.88
2018-11-26T20:10:29.200Z,20.89
2018-11-26T20:11:33.142Z,20.89
2018-11-26T20:12:29.089Z,20.86
2018-11-26T20:13:28.950Z,20.83
2018-11-26T20:14:28.846Z,20.80
2018-11-26T20:15:28.777Z,20.83
2018-11-26T20:16:28.733Z,20.78
2018-11-26T20:17:28.715Z,20.85
2018-11-26T20:18:28.719Z,20.86
2018-11-26T20:19:28.594Z,20.92
2018-11-26T20:20:28.482Z,20.85
2018-11-26T20:21:28.385Z,20.88
2018-11-26T20:22:28.379Z,20.89
2018-11-26T20:23:28.152Z,20.83
2018-11-26T20:24:28.111Z,20.85
2018-11-26T20:25:28.098Z,20.82
2018-11-26T20:26:27.922Z,20.90
2018-11-26T20:27:27.895Z,20.90
2018-11-26T20:28:27.944Z,20.82
2018-11-26T20:29:27.834Z,20.90
2018-11-26T20:30:27.684Z,20.88
2018-11-26T20:31:27.672Z,20.95
2018-11-26T20:32:30.242Z,20.92
2018-11-26T20:33:27.515Z,20.90
2018-11-26T20:34:27.422Z,20.82
2018-11-26T20:35:27.295Z,20.85
2018-11-26T20:36:27.241Z,20.89
2018-11-26T20:37:27.189Z,20.90
2018-11-26T20:38:27.182Z,20.96
2018-11-26T20:39:27.129Z,20.92
2018-11-26T20:40:26.949Z,20.82
2018-11-26T20:41:26.896Z,20.92
2018-11-26T20:42:26.857Z,20.95
2018-11-26T20:43:26.917Z,20.93
2018-11-26T20:44:26.830Z,20.92
2018-11-26T20:45:26.660Z,20.89
2018-11-26T20:46:26.617Z,20.85
2018-11-26T20:47:27.579Z,20.88
2018-11-26T20:48:30.502Z,20.78
2018-11-26T20:49:26.458Z,20.83
2018-11-26T20:50:26.309Z,20.86
2018-11-26T20:51:26.253Z,20.86
2018-11-26T20:52:26.249Z,20.85
2018-11-26T20:53:26.121Z,20.85
2018-11-26T20:54:26.126Z,20.82
2018-11-26T20:55:25.936Z,20.89
2018-11-26T20:56:25.878Z,20.86
2018-11-26T20:57:25.788Z,20.82
2018-11-26T20:58:25.727Z,20.83
2018-11-26T20:59:25.691Z,20.77
2018-11-26T21:00:26.607Z,20.85
2018-11-26T21:01:25.557Z,20.77
2018-11-26T21:02:25.451Z,20.80
2018-11-26T21:03:25.302Z,20.86
2018-11-26T21:04:25.230Z,20.85
2018-11-26T21:05:26.022Z,20.83
2018-11-26T21:06:25.174Z,20.80
2018-11-26T21:07:24.979Z,20.85
2018-11-26T21:08:24.926Z,20.88
2018-11-26T21:09:24.855Z,20.85
2018-11-26T21:10:24.849Z,20.83
2018-11-26T21:11:24.704Z,20.82
2018-11-26T21:12:24.632Z,20.83
2018-11-26T21:13:24.558Z,20.85
2018-11-26T21:14:24.588Z,20.82
2018-11-26T21:15:24.449Z,20.85
2018-11-26T21:16:24.348Z,20.75
2018-11-26T21:17:24.261Z,20.83
2018-11-26T21:18:24.187Z,20.80
2018-11-26T21:19:24.132Z,20.77
2018-11-26T21:20:24.991Z,20.80
2018-11-26T21:21:23.978Z,20.80
2018-11-26T21:22:23.965Z,20.85
2018-11-26T21:23:23.886Z,20.83
2018-11-26T21:24:23.788Z,20.82
2018-11-26T21:25:23.682Z,20.75
2018-11-26T21:26:23.702Z,20.77
2018-11-26T21:27:23.520Z,20.75
2018-11-26T21:28:23.445Z,20.78
2018-11-26T21:29:23.360Z,20.73
2018-11-26T21:30:23.275Z,20.74
2018-11-26T21:31:23.252Z,20.73
2018-11-26T21:32:23.119Z,20.68
2018-11-26T21:33:23.040Z,20.74
2018-11-26T21:34:22.966Z,20.73
2018-11-26T21:35:22.888Z,20.70
2018-11-26T21:36:22.829Z,20.75
2018-11-26T21:37:22.723Z,20.73
2018-11-26T21:38:22.644Z,20.67
2018-11-26T21:39:22.580Z,20.70
2018-11-26T21:40:22.466Z,20.71
2018-11-26T21:41:22.406Z,20.70
2018-11-26T21:42:22.297Z,20.71
2018-11-26T21:43:22.237Z,20.74
2018-11-26T21:44:22.127Z,20.71
2018-11-26T21:45:22.034Z,20.70
2018-11-26T21:46:21.986Z,20.71
2018-11-26T21:47:21.907Z,20.64
2018-11-26T21:48:21.802Z,20.74
2018-11-26T21:49:21.715Z,20.67
2018-11-26T21:50:21.646Z,20.67
2018-11-26T21:51:21.563Z,20.73
2018-11-26T21:52:21.523Z,20.74
2018-11-26T21:53:21.414Z,20.63
2018-11-26T21:54:21.331Z,20.60
2018-11-26T21:55:21.252Z,20.64
2018-11-26T21:56:21.205Z,20.64
2018-11-26T21:57:21.117Z,20.59
2018-11-26T21:58:21.054Z,20.60
2018-11-26T21:59:21.015Z,20.56
2018-11-26T22:00:20.884Z,20.64
2018-11-26T22:01:20.816Z,20.58
2018-11-26T22:02:20.735Z,20.55
2018-11-26T22:03:20.642Z,20.59
2018-11-26T22:04:20.600Z,20.63
2018-11-26T22:05:20.487Z,20.58
2018-11-26T22:06:20.428Z,20.55
2018-11-26T22:07:20.338Z,20.49
2018-11-26T22:08:20.256Z,20.52
2018-11-26T22:09:20.179Z,20.55
2018-11-26T22:10:20.089Z,20.50
2018-11-26T22:11:20.019Z,20.53
2018-11-26T22:12:19.949Z,20.49
2018-11-26T22:13:19.865Z,20.48
2018-11-26T22:14:19.839Z,20.42
2018-11-26T22:15:19.712Z,20.40
2018-11-26T22:16:19.650Z,20.37
2018-11-26T22:17:19.587Z,20.48
2018-11-26T22:18:19.493Z,20.39
2018-11-26T22:19:19.408Z,20.40
2018-11-26T22:20:19.313Z,20.36
2018-11-26T22:21:19.241Z,20.33
2018-11-26T22:22:19.172Z,20.24
2018-11-26T22:23:19.077Z,20.26
2018-11-26T22:24:19.126Z,20.26
2018-11-26T22:25:18.968Z,20.22
2018-11-26T22:26:18.885Z,20.24
2018-11-26T22:27:18.860Z,20.26
2018-11-26T22:28:18.723Z,20.29
2018-11-26T22:29:18.612Z,20.24
2018-11-26T22:30:18.540Z,20.12
2018-11-26T22:31:18.453Z,20.18
2018-11-26T22:32:18.404Z,20.17
2018-11-26T22:33:18.306Z,20.10
2018-11-26T22:34:18.237Z,20.10
2018-11-26T22:35:18.187Z,20.04
2018-11-26T22:36:18.052Z,20.08
2018-11-26T22:37:17.976Z,20.03
2018-11-26T22:38:17.913Z,20.07
2018-11-26T22:39:17.839Z,19.99
2018-11-26T22:40:17.748Z,19.99
2018-11-26T22:41:17.672Z,19.99
2018-11-26T22:42:17.594Z,19.93
2018-11-26T22:43:17.530Z,19.92
2018-11-26T22:44:17.441Z,19.93
2018-11-26T22:45:17.371Z,19.92
2018-11-26T22:46:17.288Z,19.90
2018-11-26T22:47:17.218Z,19.87
2018-11-26T22:48:17.159Z,19.81
2018-11-26T22:49:17.065Z,19.87
2018-11-26T22:50:16.998Z,19.77
2018-11-26T22:51:16.924Z,19.81
2018-11-26T22:52:16.852Z,19.79
2018-11-26T22:53:16.798Z,19.75
2018-11-26T22:54:16.712Z,19.79
2018-11-26T22:55:16.665Z,19.78
2018-11-26T22:56:16.588Z,19.74
2018-11-26T22:57:16.510Z,19.77
2018-11-26T22:58:16.529Z,19.72
2018-11-26T22:59:16.356Z,19.70
2018-11-26T23:00:16.289Z,19.71
2018-11-26T23:01:16.220Z,19.67
2018-11-26T23:02:16.148Z,19.67
2018-11-26T23:03:16.124Z,19.60
2018-11-26T23:04:16.009Z,19.70
2018-11-26T23:05:15.943Z,19.59
2018-11-26T23:06:15.874Z,19.62
2018-11-26T23:07:15.800Z,19.63
2018-11-26T23:08:15.744Z,19.67
2018-11-26T23:09:15.683Z,19.59
2018-11-26T23:10:15.597Z,19.60
2018-11-26T23:11:15.540Z,19.63
2018-11-26T23:12:15.469Z,19.55
2018-11-26T23:13:15.412Z,19.60
2018-11-26T23:14:15.361Z,19.52
2018-11-26T23:15:15.299Z,19.47
2018-11-26T23:16:15.205Z,19.52
2018-11-26T23:17:15.141Z,19.45
2018-11-26T23:18:15.069Z,19.49
2018-11-26T23:19:15.012Z,19.39
2018-11-26T23:20:14.919Z,19.45
2018-11-26T23:21:14.857Z,19.47
2018-11-26T23:22:14.792Z,19.48
2018-11-26T23:23:14.728Z,19.47
2018-11-26T23:24:14.694Z,19.49
2018-11-26T23:25:14.599Z,19.45
2018-11-26T23:26:14.546Z,19.37
2018-11-26T23:27:14.487Z,19.45
2018-11-26T23:28:14.421Z,19.39
2018-11-26T23:29:14.379Z,19.42
2018-11-26T23:30:14.290Z,19.53
2018-11-26T23:31:14.231Z,19.55
2018-11-26T23:32:14.171Z,19.42
2018-11-26T23:33:14.228Z,19.53
2018-11-26T23:34:14.151Z,19.47
2018-11-26T23:35:14.071Z,19.47
2018-11-26T23:36:13.944Z,19.49
2018-11-26T23:37:14.680Z,19.57
2018-11-26T23:38:13.813Z,19.57
2018-11-26T23:39:13.723Z,19.53
2018-11-26T23:40:13.658Z,19.63
2018-11-26T23:41:13.571Z,19.59
2018-11-26T23:42:13.522Z,19.62
2018-11-26T23:43:13.492Z,19.64
2018-11-26T23:44:13.377Z,19.67
2018-11-26T23:45:13.332Z,19.64
2018-11-26T23:46:13.253Z,19.63
2018-11-26T23:47:13.181Z,19.56
2018-11-26T23:48:13.116Z,19.62
2018-11-26T23:49:13.063Z,19.67
2018-11-26T23:50:13.017Z,19.66
2018-11-26T23:51:12.926Z,19.72
2018-11-26T23:52:12.868Z,19.78
2018-11-26T23:53:12.796Z,19.74
2018-11-26T23:54:12.732Z,19.72
2018-11-26T23:55:12.694Z,19.72
2018-11-26T23:56:12.618Z,19.71
2018-11-26T23:57:12.544Z,19.71
2018-11-26T23:58:12.498Z,19.75
2018-11-26T23:59:12.424Z,19.79
